createdAt,value
2019-01-06T00:01:53.323Z,17.20
2019-01-06T00:04:52.038Z,17.10
2019-01-06T00:07:39.403Z,17.20
2019-01-06T00:10:21.970Z,17.20
2019-01-06T00:13:10.703Z,17.20
2019-01-06T00:16:14.635Z,17.30
2019-01-06T00:19:06.179Z,17.30
2019-01-06T00:21:52.251Z,17.30
2019-01-06T00:24:39.421Z,17.30
2019-01-06T00:27:26.522Z,17.20
2019-01-06T00:30:13.922Z,17.10
2019-01-06T00:33:11.851Z,17.20
2019-01-06T00:36:09.355Z,17.20
2019-01-06T00:39:00.866Z,17.20
2019-01-06T00:41:55.915Z,17.30
2019-01-06T00:44:43.143Z,17.30
2019-01-06T00:47:26.047Z,17.10
2019-01-06T00:50:13.230Z,17.20
2019-01-06T00:53:05.611Z,17.40
2019-01-06T00:55:58.799Z,17.40
2019-01-06T00:58:56.643Z,17.50
2019-01-06T01:01:54.431Z,17.50
2019-01-06T01:04:41.887Z,17.50
2019-01-06T01:07:29.297Z,17.50
2019-01-06T01:10:30.687Z,17.60
2019-01-06T01:13:25.188Z,17.50
2019-01-06T01:16:12.406Z,17.40
2019-01-06T01:19:19.423Z,17.30
2019-01-06T01:22:04.859Z,17.30
2019-01-06T01:24:50.859Z,17.30
2019-01-06T01:27:33.250Z,17.40
2019-01-06T01:30:20.762Z,17.20
2019-01-06T01:33:13.866Z,17.30
2019-01-06T01:36:14.875Z,17.20
2019-01-06T01:39:01.998Z,17.10
2019-01-06T01:41:51.174Z,17.20
2019-01-06T01:44:38.803Z,17.30
2019-01-06T01:47:37.250Z,17.40
2019-01-06T01:50:32.919Z,17.40
2019-01-06T01:53:21.763Z,17.30
2019-01-06T01:56:21.030Z,17.40
2019-01-06T01:59:09.758Z,17.40
2019-01-06T02:01:57.211Z,17.40
2019-01-06T02:04:44.391Z,17.30
2019-01-06T02:07:31.919Z,17.40
2019-01-06T02:10:38.660Z,17.40
2019-01-06T02:13:39.263Z,17.40
2019-01-06T02:16:26.461Z,17.40
2019-01-06T02:19:33.369Z,17.30
2019-01-06T02:22:21.738Z,17.30
2019-01-06T02:25:04.332Z,17.30
2019-01-06T02:27:51.851Z,17.10
2019-01-06T02:30:49.743Z,17.20
2019-01-06T02:33:53.326Z,17.20
2019-01-06T02:36:46.176Z,17.10
2019-01-06T02:39:33.466Z,17.20
2019-01-06T02:42:31.120Z,17.10
2019-01-06T02:45:25.007Z,17.10
2019-01-06T02:48:28.654Z,17.10
2019-01-06T02:51:23.254Z,17.10
2019-01-06T02:54:15.471Z,17.10
2019-01-06T02:57:13.293Z,17.10
2019-01-06T03:00:00.510Z,17.10
2019-01-06T03:02:47.811Z,17.20
2019-01-06T03:05:48.726Z,17.10
2019-01-06T03:08:29.067Z,17.10
2019-01-06T03:11:36.042Z,17.20
2019-01-06T03:14:21.410Z,17.20
2019-01-06T03:17:08.694Z,17.20
2019-01-06T03:19:55.938Z,17.20
2019-01-06T03:22:43.002Z,17.20
2019-01-06T03:25:30.131Z,17.10
2019-01-06T03:28:21.706Z,17.10
2019-01-06T03:31:10.454Z,17.00
2019-01-06T03:34:07.199Z,17.10
2019-01-06T03:37:11.074Z,17.00
2019-01-06T03:39:57.171Z,17.00
2019-01-06T03:42:48.064Z,17.10
2019-01-06T03:45:39.884Z,17.10
2019-01-06T03:48:27.067Z,17.00
2019-01-06T03:51:12.600Z,17.00
2019-01-06T03:53:59.763Z,17.00
2019-01-06T03:56:54.342Z,17.10
2019-01-06T03:59:37.234Z,17.10
2019-01-06T04:02:24.675Z,17.10
2019-01-06T04:05:16.966Z,17.10
2019-01-06T04:08:06.143Z,17.10
2019-01-06T04:10:57.724Z,17.00
2019-01-06T04:13:46.518Z,17.10
2019-01-06T04:16:33.648Z,17.10
2019-01-06T04:19:16.744Z,17.00
2019-01-06T04:22:04.332Z,17.10
2019-01-06T04:24:52.395Z,17.00
2019-01-06T04:27:39.988Z,17.10
2019-01-06T04:30:30.419Z,17.00
2019-01-06T04:33:17.894Z,17.10
2019-01-06T04:36:22.734Z,17.00
2019-01-06T04:39:14.542Z,17.00
2019-01-06T04:42:12.390Z,17.00
2019-01-06T04:45:01.163Z,17.00
2019-01-06T04:47:49.575Z,17.00
2019-01-06T04:50:38.452Z,17.00
2019-01-06T04:53:30.098Z,16.90
2019-01-06T04:56:17.455Z,17.00
2019-01-06T04:59:04.658Z,17.00
2019-01-06T05:01:51.862Z,17.10
2019-01-06T05:04:49.741Z,17.10
2019-01-06T05:07:37.158Z,17.10
2019-01-06T05:10:15.006Z,17.00
2019-01-06T05:12:57.728Z,17.00
2019-01-06T05:15:47.175Z,17.00
2019-01-06T05:18:54.170Z,17.10
2019-01-06T05:21:45.668Z,17.00
2019-01-06T05:24:34.452Z,17.00
2019-01-06T05:27:21.603Z,17.00
2019-01-06T05:30:15.518Z,16.90
2019-01-06T05:32:56.945Z,16.90
2019-01-06T05:35:45.311Z,16.90
2019-01-06T05:38:45.856Z,17.00
2019-01-06T05:41:40.421Z,17.00
2019-01-06T05:44:35.130Z,17.10
2019-01-06T05:47:23.850Z,16.90
2019-01-06T05:50:08.721Z,16.90
2019-01-06T05:52:52.123Z,17.20
2019-01-06T05:55:33.382Z,17.30
2019-01-06T05:58:20.751Z,17.30
2019-01-06T06:01:09.486Z,17.20
2019-01-06T06:03:56.652Z,17.20
2019-01-06T06:06:43.926Z,17.30
2019-01-06T06:09:32.672Z,17.30
2019-01-06T06:12:17.815Z,17.30
2019-01-06T06:15:05.291Z,17.20
2019-01-06T06:18:05.151Z,17.20
2019-01-06T06:20:50.307Z,17.10
2019-01-06T06:23:30.950Z,17.20
2019-01-06T06:26:29.371Z,17.20
2019-01-06T06:29:10.931Z,17.00
2019-01-06T06:31:58.370Z,16.70
2019-01-06T06:34:45.770Z,16.30
2019-01-06T06:37:40.422Z,16.60
2019-01-06T06:40:27.804Z,16.90
2019-01-06T06:43:10.497Z,17.00
2019-01-06T06:46:04.874Z,17.00
2019-01-06T06:48:46.947Z,17.00
2019-01-06T06:51:35.738Z,17.10
2019-01-06T06:54:24.472Z,17.10
2019-01-06T06:57:48.760Z,17.00
2019-01-06T07:00:53.016Z,17.00
2019-01-06T07:03:54.467Z,17.00
2019-01-06T07:06:40.654Z,16.90
2019-01-06T07:09:28.048Z,16.90
2019-01-06T07:12:13.613Z,16.90
2019-01-06T07:15:00.812Z,16.90
2019-01-06T07:18:27.144Z,16.80
2019-01-06T07:21:15.879Z,16.80
2019-01-06T07:23:59.640Z,16.70
2019-01-06T07:26:51.296Z,16.70
2019-01-06T07:29:57.956Z,16.80
2019-01-06T07:32:49.803Z,16.80
2019-01-06T07:35:29.403Z,16.90
2019-01-06T07:38:21.275Z,16.90
2019-01-06T07:41:08.651Z,16.80
2019-01-06T07:43:57.391Z,16.80
2019-01-06T07:46:44.759Z,16.80
2019-01-06T07:49:36.356Z,16.70
2019-01-06T07:52:34.196Z,16.70
2019-01-06T07:55:34.931Z,16.70
2019-01-06T07:58:26.467Z,16.70
2019-01-06T08:01:13.716Z,16.70
2019-01-06T08:04:10.384Z,16.70
2019-01-06T08:06:57.491Z,16.70
2019-01-06T08:09:45.086Z,16.70
2019-01-06T08:12:37.859Z,16.70
2019-01-06T08:15:25.159Z,16.70
2019-01-06T08:18:27.716Z,16.60
2019-01-06T08:21:18.263Z,16.70
2019-01-06T08:24:07.003Z,16.60
2019-01-06T08:26:54.160Z,16.70
2019-01-06T08:29:41.558Z,16.60
2019-01-06T08:32:21.143Z,16.60
2019-01-06T08:35:15.956Z,16.70
2019-01-06T08:38:16.782Z,16.70
2019-01-06T08:40:53.543Z,16.70
2019-01-06T08:43:45.079Z,16.70
2019-01-06T08:46:32.309Z,16.60
2019-01-06T08:49:25.087Z,16.70
2019-01-06T08:52:25.993Z,16.70
2019-01-06T08:55:13.174Z,16.70
2019-01-06T08:58:00.594Z,17.00
2019-01-06T09:00:47.938Z,17.10
2019-01-06T09:03:39.443Z,17.10
2019-01-06T09:06:24.583Z,17.20
2019-01-06T09:09:13.386Z,17.10
2019-01-06T09:12:00.750Z,17.30
2019-01-06T09:14:47.838Z,17.40
2019-01-06T09:17:35.331Z,17.30
2019-01-06T09:20:23.206Z,17.40
2019-01-06T09:23:20.951Z,17.40
2019-01-06T09:26:10.055Z,17.50
2019-01-06T09:28:54.875Z,17.60
2019-01-06T09:32:02.286Z,17.70
2019-01-06T09:34:57.403Z,17.60
2019-01-06T09:37:45.978Z,17.40
2019-01-06T09:40:33.544Z,17.50
2019-01-06T09:43:31.766Z,17.60
2019-01-06T09:46:11.491Z,17.60
2019-01-06T09:49:06.120Z,17.60
2019-01-06T09:51:53.623Z,17.50
2019-01-06T09:54:42.358Z,17.40
2019-01-06T09:57:29.462Z,17.50
2019-01-06T10:00:15.423Z,17.40
2019-01-06T10:03:13.381Z,17.40
2019-01-06T10:06:02.119Z,17.50
2019-01-06T10:08:51.227Z,17.40
2019-01-06T10:11:41.402Z,17.20
2019-01-06T10:14:31.482Z,17.40
2019-01-06T10:17:26.351Z,17.50
2019-01-06T10:20:15.099Z,17.50
2019-01-06T10:23:02.211Z,17.60
2019-01-06T10:25:49.335Z,17.60
2019-01-06T10:28:36.891Z,17.50
2019-01-06T10:31:24.395Z,17.40
2019-01-06T10:34:08.258Z,17.30
2019-01-06T10:36:56.371Z,17.40
2019-01-06T10:39:49.159Z,17.40
2019-01-06T10:42:37.275Z,17.50
2019-01-06T10:45:24.830Z,17.50
2019-01-06T10:48:28.490Z,17.60
2019-01-06T10:51:15.926Z,17.50
2019-01-06T10:54:08.420Z,17.60
2019-01-06T10:56:53.468Z,17.60
2019-01-06T10:59:48.285Z,17.60
2019-01-06T11:02:35.670Z,17.60
2019-01-06T11:05:30.366Z,17.50
2019-01-06T11:08:19.118Z,17.50
2019-01-06T11:11:06.298Z,17.50
2019-01-06T11:13:53.518Z,17.40
2019-01-06T11:16:36.431Z,17.40
2019-01-06T11:19:27.991Z,17.30
2019-01-06T11:22:14.067Z,17.40
2019-01-06T11:25:09.018Z,17.40
2019-01-06T11:28:04.122Z,17.40
2019-01-06T11:30:59.002Z,17.40
2019-01-06T11:33:42.446Z,17.40
2019-01-06T11:36:41.719Z,17.40
2019-01-06T11:39:33.460Z,17.40
2019-01-06T11:42:22.203Z,17.40
2019-01-06T11:45:13.762Z,17.40
2019-01-06T11:48:00.963Z,17.30
2019-01-06T11:50:49.702Z,17.40
2019-01-06T11:53:30.389Z,17.30
2019-01-06T11:56:24.426Z,17.30
2019-01-06T11:59:13.151Z,17.40
2019-01-06T12:02:01.899Z,17.40
2019-01-06T12:04:54.458Z,17.50
2019-01-06T12:07:41.922Z,17.50
2019-01-06T12:10:28.543Z,17.50
2019-01-06T12:13:15.735Z,17.60
2019-01-06T12:16:03.313Z,17.60
2019-01-06T12:19:00.832Z,17.60
2019-01-06T12:21:51.975Z,17.50
2019-01-06T12:24:46.531Z,17.40
2019-01-06T12:27:28.814Z,17.40
2019-01-06T12:30:15.735Z,17.40
2019-01-06T12:33:07.122Z,17.40
2019-01-06T12:36:11.071Z,17.50
2019-01-06T12:39:02.464Z,17.50
2019-01-06T12:41:49.871Z,17.50
2019-01-06T12:44:47.363Z,17.40
2019-01-06T12:47:34.799Z,17.50
2019-01-06T12:50:18.710Z,17.40
2019-01-06T12:53:16.603Z,17.50
2019-01-06T12:56:05.344Z,17.50
2019-01-06T12:59:12.306Z,17.40
2019-01-06T13:01:52.410Z,17.40
2019-01-06T13:04:53.146Z,17.50
2019-01-06T13:07:48.325Z,17.50
2019-01-06T13:10:46.506Z,17.50
2019-01-06T13:13:37.077Z,17.50
2019-01-06T13:16:26.050Z,17.60
2019-01-06T13:19:13.559Z,17.70
2019-01-06T13:22:01.910Z,17.60
2019-01-06T13:24:50.510Z,17.50
2019-01-06T13:27:37.671Z,17.50
2019-01-06T13:30:36.894Z,17.50
2019-01-06T13:33:27.575Z,17.40
2019-01-06T13:36:11.431Z,17.50
2019-01-06T13:38:59.255Z,17.60
2019-01-06T13:41:40.817Z,17.50
2019-01-06T13:44:26.871Z,17.60
2019-01-06T13:47:33.927Z,17.60
2019-01-06T13:50:21.532Z,17.70
2019-01-06T13:53:08.935Z,17.60
2019-01-06T13:55:56.158Z,17.60
2019-01-06T13:58:43.343Z,17.60
2019-01-06T14:01:41.064Z,17.50
2019-01-06T14:04:41.794Z,17.50
2019-01-06T14:07:24.214Z,17.50
2019-01-06T14:10:15.763Z,17.10
2019-01-06T14:13:03.357Z,17.00
2019-01-06T14:15:50.495Z,17.30
2019-01-06T14:18:37.395Z,17.50
2019-01-06T14:21:44.362Z,17.40
2019-01-06T14:24:31.454Z,17.60
2019-01-06T14:27:35.227Z,17.40
2019-01-06T14:30:23.144Z,17.30
2019-01-06T14:33:10.575Z,17.30
2019-01-06T14:35:58.071Z,17.50
2019-01-06T14:38:45.691Z,17.50
2019-01-06T14:41:33.136Z,17.50
2019-01-06T14:44:20.311Z,17.60
2019-01-06T14:47:07.436Z,17.40
2019-01-06T14:49:54.535Z,17.50
2019-01-06T14:52:40.682Z,17.60
2019-01-06T14:55:32.556Z,17.70
2019-01-06T14:58:21.309Z,17.70
2019-01-06T15:01:07.603Z,17.70
2019-01-06T15:03:52.103Z,17.70
2019-01-06T15:06:40.847Z,17.60
2019-01-06T15:09:31.696Z,17.60
2019-01-06T15:12:23.451Z,17.50
2019-01-06T15:15:19.696Z,17.50
2019-01-06T15:18:06.951Z,17.70
2019-01-06T15:20:54.317Z,17.70
2019-01-06T15:23:41.482Z,17.50
2019-01-06T15:26:39.398Z,17.60
2019-01-06T15:29:26.783Z,17.60
2019-01-06T15:32:15.035Z,17.70
2019-01-06T15:35:03.259Z,17.70
2019-01-06T15:37:54.783Z,17.60
2019-01-06T15:40:58.516Z,17.70
2019-01-06T15:43:53.510Z,17.70
2019-01-06T15:46:48.371Z,17.70
2019-01-06T15:49:40.771Z,17.70
2019-01-06T15:52:26.200Z,17.60
2019-01-06T15:55:29.807Z,17.50
2019-01-06T15:58:18.567Z,17.60
2019-01-06T16:01:06.375Z,17.50
2019-01-06T16:03:55.250Z,17.60
2019-01-06T16:06:49.235Z,17.50
2019-01-06T16:09:49.887Z,17.50
2019-01-06T16:12:32.103Z,17.60
2019-01-06T16:15:19.259Z,17.60
2019-01-06T16:18:10.830Z,17.60
2019-01-06T16:21:05.354Z,17.40
2019-01-06T16:23:52.535Z,17.50
2019-01-06T16:26:44.035Z,17.60
2019-01-06T16:29:35.611Z,17.60
2019-01-06T16:32:19.903Z,17.60
2019-01-06T16:35:07.314Z,17.60
2019-01-06T16:37:54.752Z,17.60
2019-01-06T16:40:58.678Z,17.50
2019-01-06T16:43:50.318Z,17.50
2019-01-06T16:46:44.999Z,17.60
2019-01-06T16:49:36.939Z,17.50
2019-01-06T16:52:24.429Z,17.60
2019-01-06T16:55:22.319Z,17.60
2019-01-06T16:58:14.086Z,17.60
2019-01-06T17:01:14.723Z,17.50
2019-01-06T17:04:01.911Z,17.60
2019-01-06T17:06:56.670Z,17.60
2019-01-06T17:09:50.550Z,17.60
2019-01-06T17:12:39.302Z,17.60
2019-01-06T17:15:18.383Z,17.50
2019-01-06T17:18:15.958Z,17.30
2019-01-06T17:21:10.615Z,17.10
2019-01-06T17:24:06.842Z,17.20
2019-01-06T17:27:00.515Z,17.50
2019-01-06T17:29:47.914Z,17.60
2019-01-06T17:32:35.094Z,17.60
2019-01-06T17:35:27.090Z,17.60
2019-01-06T17:38:14.290Z,17.70
2019-01-06T17:41:03.139Z,17.70
2019-01-06T17:44:01.046Z,17.80
2019-01-06T17:46:53.890Z,17.70
2019-01-06T17:49:50.503Z,17.60
2019-01-06T17:52:40.999Z,17.50
2019-01-06T17:55:28.201Z,17.20
2019-01-06T17:58:14.407Z,17.30
2019-01-06T18:01:02.166Z,17.30
2019-01-06T18:03:46.703Z,17.50
2019-01-06T18:06:35.118Z,17.60
2019-01-06T18:09:24.896Z,17.50
2019-01-06T18:12:13.646Z,17.60
2019-01-06T18:15:14.442Z,17.60
2019-01-06T18:18:02.850Z,17.60
2019-01-06T18:20:52.474Z,17.70
2019-01-06T18:23:39.467Z,17.60
2019-01-06T18:26:34.318Z,17.50
2019-01-06T18:29:20.462Z,17.50
2019-01-06T18:32:19.910Z,17.50
2019-01-06T18:35:07.031Z,17.50
2019-01-06T18:38:03.546Z,17.50
2019-01-06T18:40:58.354Z,17.30
2019-01-06T18:43:47.095Z,17.20
2019-01-06T18:46:44.862Z,17.30
2019-01-06T18:49:26.744Z,17.30
2019-01-06T18:52:09.778Z,17.30
2019-01-06T18:54:56.347Z,17.00
2019-01-06T18:57:53.863Z,17.10
2019-01-06T19:00:34.920Z,17.20
2019-01-06T19:03:29.995Z,17.20
2019-01-06T19:06:33.867Z,17.20
2019-01-06T19:09:26.792Z,17.20
2019-01-06T19:12:09.300Z,17.20
2019-01-06T19:14:50.606Z,17.10
2019-01-06T19:17:40.777Z,17.20
2019-01-06T19:20:40.934Z,17.20
2019-01-06T19:23:28.394Z,17.20
2019-01-06T19:26:15.794Z,17.10
2019-01-06T19:29:08.225Z,17.10
2019-01-06T19:32:12.834Z,17.20
2019-01-06T19:35:00.011Z,17.20
2019-01-06T19:38:03.944Z,17.20
2019-01-06T19:40:51.258Z,17.20
2019-01-06T19:43:46.079Z,17.10
2019-01-06T19:46:46.783Z,17.10
2019-01-06T19:49:33.874Z,17.00
2019-01-06T19:52:15.823Z,17.20
2019-01-06T19:55:10.607Z,17.30
2019-01-06T19:58:08.222Z,17.30
2019-01-06T20:00:59.891Z,17.30
2019-01-06T20:03:57.835Z,17.20
2019-01-06T20:06:53.263Z,17.20
2019-01-06T20:09:40.490Z,17.20
2019-01-06T20:12:32.268Z,17.20
2019-01-06T20:15:21.007Z,17.20
2019-01-06T20:18:07.657Z,17.20
2019-01-06T20:21:08.386Z,17.30
2019-01-06T20:23:57.119Z,17.30
2019-01-06T20:27:00.748Z,17.30
2019-01-06T20:30:01.483Z,17.30
2019-01-06T20:32:45.690Z,17.30
2019-01-06T20:35:40.546Z,17.40
2019-01-06T20:38:28.053Z,17.50
2019-01-06T20:41:18.854Z,17.40
2019-01-06T20:44:13.487Z,17.40
2019-01-06T20:47:00.991Z,17.40
2019-01-06T20:49:52.499Z,17.40
2019-01-06T20:52:41.985Z,17.40
2019-01-06T20:55:35.159Z,17.40
2019-01-06T20:58:23.910Z,17.40
2019-01-06T21:01:12.760Z,17.40
2019-01-06T21:04:07.544Z,17.30
2019-01-06T21:06:54.722Z,17.40
2019-01-06T21:09:46.250Z,17.30
2019-01-06T21:12:30.030Z,17.30
2019-01-06T21:15:24.559Z,17.30
2019-01-06T21:18:12.003Z,17.30
2019-01-06T21:20:59.492Z,17.30
2019-01-06T21:23:42.714Z,17.40
2019-01-06T21:26:40.139Z,17.20
2019-01-06T21:29:27.818Z,17.20
2019-01-06T21:32:22.474Z,17.20
2019-01-06T21:35:09.958Z,17.30
2019-01-06T21:38:04.467Z,17.40
2019-01-06T21:40:56.293Z,17.40
2019-01-06T21:43:45.034Z,17.40
2019-01-06T21:46:42.631Z,17.40
2019-01-06T21:49:26.684Z,17.30
2019-01-06T21:52:04.164Z,17.00
2019-01-06T21:54:51.568Z,17.10
2019-01-06T21:57:34.658Z,17.20
2019-01-06T22:00:22.386Z,17.10
2019-01-06T22:03:17.134Z,17.10
2019-01-06T22:06:08.654Z,17.10
2019-01-06T22:08:56.109Z,17.10
2019-01-06T22:11:42.560Z,17.10
2019-01-06T22:14:30.130Z,17.10
2019-01-06T22:17:21.178Z,17.10
2019-01-06T22:20:04.062Z,17.10
2019-01-06T22:22:53.756Z,17.10
2019-01-06T22:25:30.945Z,17.10
2019-01-06T22:28:24.239Z,17.00
2019-01-06T22:31:11.771Z,17.10
2019-01-06T22:33:59.191Z,17.00
2019-01-06T22:36:46.444Z,17.10
2019-01-06T22:39:34.599Z,17.10
2019-01-06T22:42:23.425Z,17.10
2019-01-06T22:45:15.203Z,17.00
2019-01-06T22:48:19.763Z,17.10
2019-01-06T22:51:14.583Z,17.10
2019-01-06T22:54:01.717Z,17.10
2019-01-06T22:56:49.078Z,17.10
2019-01-06T22:59:55.778Z,17.10
2019-01-06T23:02:44.555Z,17.10
2019-01-06T23:05:42.949Z,17.10
2019-01-06T23:08:31.331Z,17.10
2019-01-06T23:11:18.827Z,17.00
2019-01-06T23:14:06.267Z,17.10
2019-01-06T23:16:58.042Z,17.00
2019-01-06T23:19:51.807Z,17.00
2019-01-06T23:22:38.703Z,17.00
2019-01-06T23:25:45.618Z,17.00
2019-01-06T23:28:31.631Z,17.00
2019-01-06T23:31:19.216Z,16.90
2019-01-06T23:34:05.954Z,17.10
2019-01-06T23:36:53.161Z,17.20
2019-01-06T23:39:50.915Z,17.20
2019-01-06T23:42:38.350Z,17.10
2019-01-06T23:45:26.087Z,17.20
2019-01-06T23:48:12.758Z,17.00
2019-01-06T23:50:50.958Z,16.80
2019-01-06T23:53:45.495Z,16.60
2019-01-06T23:56:32.882Z,16.70
2019-01-06T23:59:33.867Z,16.90
